Bewerina — OG8966 — position and weather

sailwx.info

Track history (hours):
 
Tides and Currents Weather Stations Pressure Air Temp Water Temp Dewpoint Dewpoint Depression Visibility Wind Speed Wind Dir Waves Ship Positions

Bewerina

Last reported at 2014-Jul-29 10:31 UTC. Time now 2014-Jul-30 07:11 UTC.
Position N 60°10' E 024°51'.

Length 14 m.

Type: Pleasure craft. MMSI: 230940960.

Date/timePositionNaut miles runAvg speedWind from/ knotsBaromVisibWave heightAir tempDewpointWater temp
2014-Jul-29 10:31N 60°10' E 024°51'0 0.0
2014-Jul-29 09:28N 60°10' E 024°51'0 0.0
2014-Jul-29 08:31N 60°10' E 024°51'0 0.0
2014-Jul-29 07:31N 60°10' E 024°51'0 0.0
2014-Jul-29 06:25N 60°10' E 024°51'0 0.0
2014-Jul-29 05:22N 60°10' E 024°51'0 0.0
2014-Jul-29 04:28N 60°10' E 024°51'0 0.0
2014-Jul-29 03:31N 60°10' E 024°51'0 0.0
2014-Jul-29 02:25N 60°10' E 024°51'0 0.0
2014-Jul-28 19:28N 60°10' E 024°51'0 0.0
2014-Jul-28 18:31N 60°10' E 024°51'0 0.0
2014-Jul-28 17:21N 60°10' E 024°51'0 0.0
2014-Jul-28 13:31N 60°10' E 024°51'0 0.0
2014-Jul-28 12:25N 60°10' E 024°51'0 0.0
2014-Jul-28 11:25N 60°10' E 024°51'0 0.0
2014-Jul-28 07:30N 60°10' E 024°51'2 2.3
2014-Jul-28 06:31N 60°09' E 024°46'0 0.0
2014-Jul-28 05:31N 60°09' E 024°46'0 0.0
2014-Jul-28 04:31N 60°09' E 024°46'0 0.0
2014-Jul-28 03:31N 60°09' E 024°46'0 0.0
2014-Jul-28 02:31N 60°09' E 024°46'0 0.0
2014-Jul-28 01:31N 60°09' E 024°46'0 0.0
2014-Jul-28 00:31N 60°09' E 024°46'0 0.0
2014-Jul-27 19:31N 60°09' E 024°46'0 0.0
2014-Jul-27 18:25N 60°09' E 024°46'0 0.0
2014-Jul-27 17:31N 60°09' E 024°46'1 0.8
2014-Jul-27 16:19N 60°08' E 024°45'0 0.0
2014-Jul-27 15:31N 60°08' E 024°45'0 0.0
2014-Jul-27 14:31N 60°08' E 024°45'3 3.1
2014-Jul-27 13:31N 60°06' E 024°41'6 0.2
2014-Jul-26 12:20N 60°10' E 024°51'  
Track history (hours):
 
Tides and Currents Weather Stations Pressure Air Temp Water Temp Dewpoint Dewpoint Depression Visibility Wind Speed Wind Dir Waves Ship Positions

Bewerina

Last reported at 2014-Jul-29 10:31 UTC. Time now 2014-Jul-30 07:11 UTC.
Position N 60°10' E 024°51'.

Length 14 m.

Type: Pleasure craft. MMSI: 230940960.

Date/timePositionNaut miles runAvg speedWind from/ knotsBaromVisibWave heightAir tempDewpointWater temp
2014-Jul-29 10:31N 60°10' E 024°51'0 0.0
2014-Jul-29 09:28N 60°10' E 024°51'0 0.0
2014-Jul-29 08:31N 60°10' E 024°51'0 0.0
2014-Jul-29 07:31N 60°10' E 024°51'0 0.0
2014-Jul-29 06:25N 60°10' E 024°51'0 0.0
2014-Jul-29 05:22N 60°10' E 024°51'0 0.0
2014-Jul-29 04:28N 60°10' E 024°51'0 0.0
2014-Jul-29 03:31N 60°10' E 024°51'0 0.0
2014-Jul-29 02:25N 60°10' E 024°51'0 0.0
2014-Jul-28 19:28N 60°10' E 024°51'0 0.0
2014-Jul-28 18:31N 60°10' E 024°51'0 0.0
2014-Jul-28 17:21N 60°10' E 024°51'0 0.0
2014-Jul-28 13:31N 60°10' E 024°51'0 0.0
2014-Jul-28 12:25N 60°10' E 024°51'0 0.0
2014-Jul-28 11:25N 60°10' E 024°51'0 0.0
2014-Jul-28 07:30N 60°10' E 024°51'2 2.3
2014-Jul-28 06:31N 60°09' E 024°46'0 0.0
2014-Jul-28 05:31N 60°09' E 024°46'0 0.0
2014-Jul-28 04:31N 60°09' E 024°46'0 0.0
2014-Jul-28 03:31N 60°09' E 024°46'0 0.0
2014-Jul-28 02:31N 60°09' E 024°46'0 0.0
2014-Jul-28 01:31N 60°09' E 024°46'0 0.0
2014-Jul-28 00:31N 60°09' E 024°46'0 0.0
2014-Jul-27 19:31N 60°09' E 024°46'0 0.0
2014-Jul-27 18:25N 60°09' E 024°46'0 0.0
2014-Jul-27 17:31N 60°09' E 024°46'1 0.8
2014-Jul-27 16:19N 60°08' E 024°45'0 0.0
2014-Jul-27 15:31N 60°08' E 024°45'0 0.0
2014-Jul-27 14:31N 60°08' E 024°45'3 3.1
2014-Jul-27 13:31N 60°06' E 024°41'6 0.2
2014-Jul-26 12:20N 60°10' E 024°51'  

Dump ship's entire track history